createdAt,value
2018-11-10T00:01:10.380Z,10.60
2018-11-10T00:03:38.816Z,10.60
2018-11-10T00:06:07.267Z,10.60
2018-11-10T00:08:35.757Z,10.60
2018-11-10T00:11:04.193Z,10.70
2018-11-10T00:13:32.664Z,10.70
2018-11-10T00:16:01.137Z,10.70
2018-11-10T00:18:29.602Z,10.80
2018-11-10T00:20:58.064Z,10.80
2018-11-10T00:23:26.564Z,10.80
2018-11-10T00:25:54.997Z,10.80
2018-11-10T00:28:23.368Z,10.80
2018-11-10T00:30:51.796Z,10.80
2018-11-10T00:33:20.206Z,10.80
2018-11-10T00:35:48.781Z,10.80
2018-11-10T00:38:19.271Z,10.90
2018-11-10T00:40:47.699Z,10.90
2018-11-10T00:43:16.048Z,10.90
2018-11-10T00:45:44.555Z,11.00
2018-11-10T00:48:12.937Z,11.00
2018-11-10T00:50:41.498Z,11.00
2018-11-10T00:53:09.982Z,11.00
2018-11-10T00:55:38.444Z,11.00
2018-11-10T00:58:06.929Z,11.00
2018-11-10T01:00:35.312Z,11.00
2018-11-10T01:03:03.765Z,11.10
2018-11-10T01:05:32.155Z,11.00
2018-11-10T01:08:08.638Z,11.00
2018-11-10T01:10:57.386Z,11.10
2018-11-10T01:13:25.848Z,11.10
2018-11-10T01:15:54.268Z,11.10
2018-11-10T01:18:22.698Z,11.10
2018-11-10T01:20:51.111Z,11.10
2018-11-10T01:23:27.925Z,11.10
2018-11-10T01:25:56.480Z,11.10
2018-11-10T01:28:25.564Z,11.10
2018-11-10T01:30:53.899Z,11.10
2018-11-10T01:33:22.239Z,11.20
2018-11-10T01:35:51.661Z,11.20
2018-11-10T01:38:20.132Z,11.20
2018-11-10T01:40:48.552Z,11.20
2018-11-10T01:43:16.901Z,11.20
2018-11-10T01:45:45.525Z,11.20
2018-11-10T01:48:14.207Z,11.20
2018-11-10T01:50:42.934Z,11.20
2018-11-10T01:53:11.281Z,11.20
2018-11-10T01:55:39.697Z,11.30
2018-11-10T01:58:08.049Z,11.30
2018-11-10T02:00:36.709Z,11.30
2018-11-10T02:03:05.321Z,11.30
2018-11-10T02:05:33.936Z,11.30
2018-11-10T02:08:02.311Z,11.40
2018-11-10T02:10:30.720Z,11.40
2018-11-10T02:12:59.188Z,11.40
2018-11-10T02:15:27.890Z,11.40
2018-11-10T02:17:56.313Z,11.40
2018-11-10T02:20:25.164Z,11.40
2018-11-10T02:22:53.858Z,11.40
2018-11-10T02:25:22.332Z,11.40
2018-11-10T02:27:51.645Z,11.40
2018-11-10T02:30:20.012Z,11.40
2018-11-10T02:32:48.644Z,11.40
2018-11-10T02:35:17.006Z,11.50
2018-11-10T02:37:45.869Z,11.50
2018-11-10T02:40:15.276Z,11.50
2018-11-10T02:42:44.235Z,11.50
2018-11-10T02:45:14.794Z,11.50
2018-11-10T02:47:44.089Z,11.40
2018-11-10T02:50:12.928Z,11.40
2018-11-10T02:52:41.630Z,11.50
2018-11-10T02:55:10.942Z,11.50
2018-11-10T02:57:39.399Z,11.50
2018-11-10T03:00:09.140Z,11.40
2018-11-10T03:02:37.887Z,11.40
2018-11-10T03:05:07.502Z,11.40
2018-11-10T03:07:36.216Z,11.40
2018-11-10T03:10:05.560Z,11.40
2018-11-10T03:12:33.973Z,11.40
2018-11-10T03:15:02.383Z,11.40
2018-11-10T03:17:31.022Z,11.40
2018-11-10T03:19:59.423Z,11.30
2018-11-10T03:22:28.011Z,11.30
2018-11-10T03:24:56.885Z,11.30
2018-11-10T03:27:25.232Z,11.20
2018-11-10T03:29:53.627Z,11.20
2018-11-10T03:32:22.275Z,11.20
2018-11-10T03:34:50.704Z,11.20
2018-11-10T03:37:19.081Z,11.20
2018-11-10T03:39:47.483Z,11.20
2018-11-10T03:42:15.963Z,11.20
2018-11-10T03:44:44.677Z,11.10
2018-11-10T03:47:13.742Z,11.10
2018-11-10T03:49:42.158Z,11.10
2018-11-10T03:52:10.814Z,11.10
2018-11-10T03:54:39.179Z,11.10
2018-11-10T03:57:07.600Z,11.20
2018-11-10T03:59:36.082Z,11.10
2018-11-10T04:02:04.896Z,11.10
2018-11-10T04:04:33.313Z,11.10
2018-11-10T04:07:02.266Z,11.10
2018-11-10T04:09:31.085Z,11.10
2018-11-10T04:11:59.738Z,11.10
2018-11-10T04:14:28.158Z,11.00
2018-11-10T04:16:56.569Z,11.00
2018-11-10T04:19:24.968Z,11.00
2018-11-10T04:21:54.829Z,11.00
2018-11-10T04:24:23.260Z,11.00
2018-11-10T04:26:51.964Z,11.00
2018-11-10T04:29:21.277Z,11.00
2018-11-10T04:31:49.762Z,11.00
2018-11-10T04:34:18.153Z,11.00
2018-11-10T04:36:46.886Z,11.00
2018-11-10T04:39:15.533Z,10.90
2018-11-10T04:41:43.933Z,11.00
2018-11-10T04:44:12.500Z,11.00
2018-11-10T04:46:40.917Z,10.90
2018-11-10T04:49:09.289Z,10.90
2018-11-10T04:51:37.638Z,10.90
2018-11-10T04:54:06.069Z,10.90
2018-11-10T04:56:34.790Z,10.90
2018-11-10T04:59:03.189Z,10.90
2018-11-10T05:01:31.654Z,10.90
2018-11-10T05:03:59.895Z,10.90
2018-11-10T05:06:28.308Z,10.90
2018-11-10T05:08:56.751Z,10.90
2018-11-10T05:11:25.147Z,10.90
2018-11-10T05:13:55.034Z,10.90
2018-11-10T05:16:23.419Z,10.90
2018-11-10T05:18:51.843Z,10.90
2018-11-10T05:21:20.471Z,10.80
2018-11-10T05:23:50.201Z,10.80
2018-11-10T05:26:18.812Z,10.80
2018-11-10T05:28:47.508Z,10.80
2018-11-10T05:31:16.206Z,10.80
2018-11-10T05:33:44.468Z,10.80
2018-11-10T05:36:12.914Z,10.80
2018-11-10T05:38:41.641Z,10.80
2018-11-10T05:41:10.028Z,10.80
2018-11-10T05:43:38.599Z,10.80
2018-11-10T05:46:07.272Z,10.80
2018-11-10T05:48:35.871Z,10.80
2018-11-10T05:51:04.216Z,10.80
2018-11-10T05:53:32.610Z,10.80
2018-11-10T05:56:01.019Z,10.80
2018-11-10T05:58:29.349Z,10.80
2018-11-10T06:00:57.917Z,10.80
2018-11-10T06:03:26.831Z,10.80
2018-11-10T06:05:55.268Z,10.70
2018-11-10T06:08:24.141Z,10.80
2018-11-10T06:10:52.548Z,10.80
2018-11-10T06:13:21.126Z,10.70
2018-11-10T06:15:49.572Z,10.70
2018-11-10T06:18:18.559Z,10.70
2018-11-10T06:20:46.975Z,10.70
2018-11-10T06:23:15.376Z,10.70
2018-11-10T06:25:43.895Z,10.80
2018-11-10T06:28:12.815Z,10.80
2018-11-10T06:30:41.699Z,10.80
2018-11-10T06:33:10.100Z,10.80
2018-11-10T06:35:38.568Z,10.80
2018-11-10T06:38:07.135Z,10.70
2018-11-10T06:40:36.525Z,10.70
2018-11-10T06:43:05.633Z,10.80
2018-11-10T06:45:36.367Z,10.80
2018-11-10T06:48:05.388Z,10.80
2018-11-10T06:50:34.085Z,10.80
2018-11-10T06:53:02.714Z,10.80
2018-11-10T06:55:30.951Z,10.80
2018-11-10T06:57:59.335Z,10.80
2018-11-10T07:00:28.908Z,10.80
2018-11-10T07:02:57.537Z,10.80
2018-11-10T07:05:25.939Z,10.80
2018-11-10T07:07:58.213Z,10.80
2018-11-10T07:10:36.143Z,10.80
2018-11-10T07:13:04.758Z,10.80
2018-11-10T07:15:33.151Z,10.80
2018-11-10T07:18:01.631Z,10.80
2018-11-10T07:20:30.167Z,10.80
2018-11-10T07:22:59.017Z,10.80
2018-11-10T07:25:27.624Z,10.80
2018-11-10T07:27:56.192Z,10.80
2018-11-10T07:30:24.559Z,10.90
2018-11-10T07:32:52.871Z,10.90
2018-11-10T07:35:21.291Z,10.90
2018-11-10T07:37:50.929Z,10.90
2018-11-10T07:40:19.667Z,10.90
2018-11-10T07:43:01.159Z,10.80
2018-11-10T07:45:29.607Z,10.90
2018-11-10T07:47:58.106Z,10.90
2018-11-10T07:50:27.511Z,10.90
2018-11-10T07:52:56.092Z,10.90
2018-11-10T07:55:24.516Z,10.90
2018-11-10T07:57:52.997Z,10.90
2018-11-10T08:00:21.446Z,10.90
2018-11-10T08:02:50.310Z,10.90
2018-11-10T08:05:18.807Z,10.90
2018-11-10T08:07:47.281Z,10.90
2018-11-10T08:10:16.156Z,10.90
2018-11-10T08:12:44.848Z,11.00
2018-11-10T08:15:14.552Z,11.00
2018-11-10T08:17:43.290Z,11.00
2018-11-10T08:20:18.019Z,11.00
2018-11-10T08:22:47.382Z,11.00
2018-11-10T08:25:15.957Z,11.00
2018-11-10T08:27:44.455Z,11.00
2018-11-10T08:30:13.939Z,11.00
2018-11-10T08:32:42.929Z,11.00
2018-11-10T08:35:12.652Z,11.00
2018-11-10T08:37:41.152Z,11.00
2018-11-10T08:40:12.766Z,11.10
2018-11-10T08:42:41.439Z,11.10
2018-11-10T08:45:11.366Z,11.10
2018-11-10T08:47:40.875Z,11.10
2018-11-10T08:50:10.370Z,11.10
2018-11-10T08:52:40.400Z,11.10
2018-11-10T08:55:12.552Z,11.10
2018-11-10T08:57:46.471Z,11.20
2018-11-10T09:00:15.226Z,11.20
2018-11-10T09:02:43.765Z,11.20
2018-11-10T09:05:13.317Z,11.20
2018-11-10T09:07:42.131Z,11.20
2018-11-10T09:10:12.431Z,11.30
2018-11-10T09:12:41.101Z,11.30
2018-11-10T09:15:11.725Z,11.30
2018-11-10T09:17:40.532Z,11.30
2018-11-10T09:20:11.485Z,11.30
2018-11-10T09:22:41.453Z,11.40
2018-11-10T09:25:11.817Z,11.40
2018-11-10T09:27:40.757Z,11.40
2018-11-10T09:30:10.893Z,11.40
2018-11-10T09:32:39.552Z,11.40
2018-11-10T09:35:08.978Z,11.50
2018-11-10T09:37:37.495Z,11.50
2018-11-10T09:40:07.576Z,11.50
2018-11-10T09:42:36.210Z,11.50
2018-11-10T09:45:05.957Z,11.60
2018-11-10T09:47:34.392Z,11.60
2018-11-10T09:50:03.093Z,11.60
2018-11-10T09:52:31.744Z,11.60
2018-11-10T09:55:00.141Z,11.70
2018-11-10T09:57:28.810Z,11.70
2018-11-10T09:59:57.277Z,11.70
2018-11-10T10:02:26.546Z,11.70
2018-11-10T10:04:54.943Z,11.70
2018-11-10T10:07:23.600Z,11.80
2018-11-10T10:09:52.633Z,11.80
2018-11-10T10:12:21.361Z,11.80
2018-11-10T10:14:50.413Z,11.80
2018-11-10T10:17:18.870Z,11.90
2018-11-10T10:19:47.688Z,11.90
2018-11-10T10:22:16.121Z,11.90
2018-11-10T10:24:44.595Z,12.00
2018-11-10T10:27:13.494Z,12.00
2018-11-10T10:29:42.112Z,12.00
2018-11-10T10:32:10.763Z,12.00
2018-11-10T10:34:39.287Z,12.00
2018-11-10T10:37:07.921Z,12.00
2018-11-10T10:39:36.487Z,12.10
2018-11-10T10:42:05.149Z,12.10
2018-11-10T10:44:33.676Z,12.10
2018-11-10T10:47:02.351Z,12.10
2018-11-10T10:49:30.762Z,12.10
2018-11-10T10:51:59.171Z,12.10
2018-11-10T10:54:27.753Z,12.10
2018-11-10T10:56:56.360Z,12.20
2018-11-10T10:59:24.666Z,12.20
2018-11-10T11:01:58.321Z,12.20
2018-11-10T11:04:32.274Z,12.20
2018-11-10T11:07:00.656Z,12.20
2018-11-10T11:09:29.282Z,12.20
2018-11-10T11:11:57.795Z,12.20
2018-11-10T11:14:26.259Z,12.20
2018-11-10T11:16:55.129Z,12.20
2018-11-10T11:19:24.328Z,12.20
2018-11-10T11:21:53.024Z,12.20
2018-11-10T11:24:21.487Z,12.30
2018-11-10T11:26:50.608Z,12.30
2018-11-10T11:29:19.517Z,12.30
2018-11-10T11:31:47.919Z,12.20
2018-11-10T11:34:25.877Z,12.20
2018-11-10T11:36:54.562Z,12.20
2018-11-10T11:39:23.239Z,12.20
2018-11-10T11:41:52.201Z,12.20
2018-11-10T11:44:20.668Z,12.20
2018-11-10T11:46:49.314Z,12.20
2018-11-10T11:49:18.133Z,12.20
2018-11-10T11:51:46.523Z,12.20
2018-11-10T11:54:15.361Z,12.20
2018-11-10T11:56:43.739Z,12.30
2018-11-10T11:59:12.384Z,12.30
2018-11-10T12:01:40.785Z,12.30
2018-11-10T12:04:09.444Z,12.30
2018-11-10T12:06:38.052Z,12.30
2018-11-10T12:09:09.034Z,12.30
2018-11-10T12:11:37.675Z,12.30
2018-11-10T12:14:06.244Z,12.30
2018-11-10T12:16:34.818Z,12.30
2018-11-10T12:19:03.572Z,12.30
2018-11-10T12:21:31.989Z,12.30
2018-11-10T12:24:02.503Z,12.30
2018-11-10T12:26:31.158Z,12.30
2018-11-10T12:29:00.730Z,12.30
2018-11-10T12:31:29.448Z,12.30
2018-11-10T12:34:00.191Z,12.30
2018-11-10T12:36:28.605Z,12.30
2018-11-10T12:38:57.030Z,12.30
2018-11-10T12:41:25.753Z,12.30
2018-11-10T12:44:01.395Z,12.30
2018-11-10T12:46:33.891Z,12.30
2018-11-10T12:49:05.411Z,12.30
2018-11-10T12:51:34.721Z,12.30
2018-11-10T12:54:03.401Z,12.30
2018-11-10T12:56:32.072Z,12.30
2018-11-10T12:59:01.360Z,12.30
2018-11-10T13:01:30.366Z,12.30
2018-11-10T13:04:00.968Z,12.30
2018-11-10T13:09:39.080Z,12.30
2018-11-10T13:12:15.182Z,12.30
2018-11-10T13:14:43.670Z,12.30
2018-11-10T13:17:14.120Z,12.30
2018-11-10T13:19:42.928Z,12.20
2018-11-10T13:22:11.481Z,12.30
2018-11-10T13:24:39.917Z,12.20
2018-11-10T13:27:08.517Z,12.20
2018-11-10T13:29:37.206Z,12.20
2018-11-10T13:32:07.130Z,12.20
2018-11-10T13:34:35.537Z,12.20
2018-11-10T13:37:04.251Z,12.20
2018-11-10T13:39:33.560Z,12.20
2018-11-10T13:42:02.376Z,12.20
2018-11-10T13:44:31.064Z,12.20
2018-11-10T13:46:59.644Z,12.20
2018-11-10T13:49:29.065Z,12.10
2018-11-10T13:51:57.910Z,12.10
2018-11-10T13:54:25.979Z,12.10
2018-11-10T13:56:54.896Z,12.10
2018-11-10T13:59:23.590Z,12.10
2018-11-10T14:01:51.920Z,12.10
2018-11-10T14:04:20.345Z,12.10
2018-11-10T14:06:48.812Z,12.00
2018-11-10T14:09:17.652Z,12.00
2018-11-10T14:11:46.025Z,12.00
2018-11-10T14:14:14.801Z,12.00
2018-11-10T14:16:44.467Z,12.00
2018-11-10T14:19:13.024Z,11.90
2018-11-10T14:21:41.404Z,11.90
2018-11-10T14:24:10.066Z,11.90
2018-11-10T14:26:38.957Z,11.90
2018-11-10T14:29:08.488Z,11.90
2018-11-10T14:31:36.939Z,11.90
2018-11-10T14:34:05.698Z,11.90
2018-11-10T14:36:34.313Z,11.90
2018-11-10T14:39:03.070Z,11.90
2018-11-10T14:41:31.889Z,11.90
2018-11-10T14:44:00.492Z,11.90
2018-11-10T14:46:29.159Z,11.90
2018-11-10T14:48:57.799Z,11.90
2018-11-10T14:51:26.358Z,11.90
2018-11-10T14:53:54.864Z,11.90
2018-11-10T14:56:23.928Z,11.90
2018-11-10T14:58:52.413Z,11.90
2018-11-10T15:01:20.822Z,11.90
2018-11-10T15:03:49.314Z,11.90
2018-11-10T15:06:18.012Z,11.90
2018-11-10T15:08:46.732Z,11.90
2018-11-10T15:11:15.345Z,11.90
2018-11-10T15:13:44.636Z,11.90
2018-11-10T15:16:13.461Z,11.90
2018-11-10T15:18:42.142Z,11.80
2018-11-10T15:21:11.310Z,11.90
2018-11-10T15:23:39.865Z,11.90
2018-11-10T15:26:08.299Z,11.80
2018-11-10T15:28:36.921Z,11.90
2018-11-10T15:31:07.273Z,11.80
2018-11-10T15:33:35.702Z,11.80
2018-11-10T15:36:05.592Z,11.80
2018-11-10T15:38:34.846Z,11.80
2018-11-10T15:41:05.577Z,11.80
2018-11-10T15:43:33.946Z,11.80
2018-11-10T15:46:03.827Z,11.80
2018-11-10T15:48:32.310Z,11.80
2018-11-10T15:51:00.756Z,11.70
2018-11-10T15:53:29.152Z,11.70
2018-11-10T15:55:57.721Z,11.80
2018-11-10T15:58:26.518Z,11.70
2018-11-10T16:00:55.218Z,11.70
2018-11-10T16:03:23.865Z,11.70
2018-11-10T16:05:52.572Z,11.70
2018-11-10T16:08:21.026Z,11.70
2018-11-10T16:10:49.796Z,11.70
2018-11-10T16:13:18.396Z,11.60
2018-11-10T16:15:46.772Z,11.60
2018-11-10T16:18:15.255Z,11.60
2018-11-10T16:20:43.674Z,11.60
2018-11-10T16:23:12.493Z,11.70
2018-11-10T16:25:41.003Z,11.60
2018-11-10T16:28:09.511Z,11.60
2018-11-10T16:30:38.018Z,11.60
2018-11-10T16:33:06.698Z,11.60
2018-11-10T16:35:35.455Z,11.60
2018-11-10T16:38:06.101Z,11.60
2018-11-10T16:40:36.019Z,11.60
2018-11-10T16:43:04.680Z,11.60
2018-11-10T16:45:37.121Z,11.60
2018-11-10T16:48:05.998Z,11.60
2018-11-10T16:50:34.642Z,11.60
2018-11-10T16:53:03.222Z,11.60
2018-11-10T16:55:31.697Z,11.50
2018-11-10T16:58:00.133Z,11.50
2018-11-10T17:00:28.647Z,11.50
2018-11-10T17:02:58.636Z,11.50
2018-11-10T17:05:27.026Z,11.50
2018-11-10T17:07:55.558Z,11.50
2018-11-10T17:10:24.105Z,11.50
2018-11-10T17:12:52.600Z,11.40
2018-11-10T17:15:21.097Z,11.40
2018-11-10T17:17:49.473Z,11.40
2018-11-10T17:20:17.893Z,11.40
2018-11-10T17:22:49.880Z,11.40
2018-11-10T17:25:18.297Z,11.40
2018-11-10T17:27:48.440Z,11.40
2018-11-10T17:30:19.361Z,11.30
2018-11-10T17:32:47.638Z,11.30
2018-11-10T17:35:19.685Z,11.30
2018-11-10T17:37:51.732Z,11.20
2018-11-10T17:40:22.465Z,11.20
2018-11-10T17:43:02.408Z,11.20
2018-11-10T17:45:36.135Z,11.20
2018-11-10T17:48:04.880Z,11.10
2018-11-10T17:50:33.352Z,11.10
2018-11-10T17:53:02.675Z,11.10
2018-11-10T17:55:31.082Z,11.10
2018-11-10T17:57:59.758Z,11.10
2018-11-10T18:00:27.965Z,11.10
2018-11-10T18:02:56.436Z,11.10
2018-11-10T18:05:24.956Z,11.10
2018-11-10T18:07:53.352Z,11.10
2018-11-10T18:10:21.814Z,11.00
2018-11-10T18:12:51.280Z,11.10
2018-11-10T18:15:19.815Z,11.10
2018-11-10T18:17:48.295Z,11.10
2018-11-10T18:20:17.539Z,11.10
2018-11-10T18:22:46.247Z,11.10
2018-11-10T18:25:14.915Z,11.10
2018-11-10T18:27:44.203Z,11.10
2018-11-10T18:30:13.722Z,11.00
2018-11-10T18:32:42.449Z,11.00
2018-11-10T18:35:12.046Z,11.00
2018-11-10T18:37:40.899Z,11.00
2018-11-10T18:40:09.376Z,11.00
2018-11-10T18:42:37.749Z,11.00
2018-11-10T18:45:07.485Z,10.90
2018-11-10T18:47:36.122Z,10.90
2018-11-10T18:50:06.483Z,10.90
2018-11-10T18:52:35.049Z,10.80
2018-11-10T18:55:04.236Z,10.80
2018-11-10T18:57:32.911Z,10.80
2018-11-10T19:00:01.264Z,10.70
2018-11-10T19:02:29.660Z,10.70
2018-11-10T19:04:58.778Z,10.70
2018-11-10T19:07:27.368Z,10.70
2018-11-10T19:09:55.891Z,10.70
2018-11-10T19:12:24.412Z,10.70
2018-11-10T19:14:53.802Z,10.70
2018-11-10T19:17:22.334Z,10.60
2018-11-10T19:19:50.860Z,10.60
2018-11-10T19:22:19.798Z,10.60
2018-11-10T19:24:48.225Z,10.60
2018-11-10T19:27:16.851Z,10.60
2018-11-10T19:29:45.441Z,10.50
2018-11-10T19:32:14.540Z,10.50
2018-11-10T19:34:42.922Z,10.50
2018-11-10T19:37:12.763Z,10.50
2018-11-10T19:39:41.232Z,10.50
2018-11-10T19:42:09.750Z,10.50
2018-11-10T19:44:39.288Z,10.40
2018-11-10T19:47:07.784Z,10.40
2018-11-10T19:49:36.764Z,10.40
2018-11-10T19:52:07.716Z,10.40
2018-11-10T19:54:37.200Z,10.30
2018-11-10T19:57:05.873Z,10.30
2018-11-10T19:59:34.322Z,10.30
2018-11-10T20:02:03.021Z,10.30
2018-11-10T20:04:31.421Z,10.20
2018-11-10T20:06:59.796Z,10.20
2018-11-10T20:09:28.488Z,10.20
2018-11-10T20:11:57.231Z,10.20
2018-11-10T20:14:25.821Z,10.20
2018-11-10T20:16:54.433Z,10.20
2018-11-10T20:19:23.002Z,10.20
2018-11-10T20:21:51.598Z,10.20
2018-11-10T20:24:21.455Z,10.20
2018-11-10T20:26:50.200Z,10.20
2018-11-10T20:29:20.281Z,10.10
2018-11-10T20:31:48.975Z,10.20
2018-11-10T20:34:17.697Z,10.10
2018-11-10T20:36:46.946Z,10.10
2018-11-10T20:39:15.888Z,10.10
2018-11-10T20:41:44.532Z,10.10
2018-11-10T20:44:13.081Z,10.00
2018-11-10T20:46:42.822Z,10.00
2018-11-10T20:49:11.518Z,10.00
2018-11-10T20:51:40.324Z,10.00
2018-11-10T20:54:09.300Z,10.00
2018-11-10T20:56:38.121Z,10.00
2018-11-10T20:59:11.560Z,10.00
2018-11-10T21:01:39.964Z,10.00
2018-11-10T21:04:08.900Z,10.00
2018-11-10T21:06:37.610Z,10.00
2018-11-10T21:09:09.047Z,10.00
2018-11-10T21:11:37.649Z,10.00
2018-11-10T21:14:06.920Z,10.00
2018-11-10T21:16:35.621Z,10.00
2018-11-10T21:19:04.519Z,9.90
2018-11-10T21:21:33.071Z,9.90
2018-11-10T21:24:05.167Z,9.90
2018-11-10T21:26:34.021Z,9.90
2018-11-10T21:29:02.580Z,9.90
2018-11-10T21:31:37.682Z,9.90
2018-11-10T21:34:06.747Z,9.80
2018-11-10T21:36:37.209Z,9.80
2018-11-10T21:39:08.383Z,9.80
2018-11-10T21:41:37.145Z,9.80
2018-11-10T21:44:05.960Z,9.80
2018-11-10T21:46:34.707Z,9.80
2018-11-10T21:49:03.305Z,9.80
2018-11-10T21:51:31.929Z,9.80
2018-11-10T21:54:00.504Z,9.80
2018-11-10T21:56:29.087Z,9.80
2018-11-10T21:58:58.479Z,9.80
2018-11-10T22:01:27.155Z,9.80
2018-11-10T22:03:56.042Z,9.80
2018-11-10T22:06:24.703Z,9.70
2018-11-10T22:08:53.386Z,9.70
2018-11-10T22:11:22.557Z,9.70
2018-11-10T22:13:51.261Z,9.70
2018-11-10T22:16:19.911Z,9.70
2018-11-10T22:18:48.732Z,9.70
2018-11-10T22:21:17.350Z,9.70
2018-11-10T22:23:46.872Z,9.70
2018-11-10T22:26:15.813Z,9.70
2018-11-10T22:28:44.397Z,9.80
2018-11-10T22:31:13.057Z,9.80
2018-11-10T22:33:41.514Z,9.80
2018-11-10T22:36:10.043Z,9.80
2018-11-10T22:38:38.674Z,9.80
2018-11-10T22:41:07.268Z,9.80
2018-11-10T22:43:35.929Z,9.80
2018-11-10T22:46:04.601Z,9.80
2018-11-10T22:48:33.136Z,9.80
2018-11-10T22:51:01.610Z,9.80
2018-11-10T22:53:30.173Z,9.80
2018-11-10T22:55:58.795Z,9.70
2018-11-10T22:58:27.396Z,9.70
2018-11-10T23:01:01.679Z,9.70
2018-11-10T23:03:30.376Z,9.70
2018-11-10T23:05:58.852Z,9.70
2018-11-10T23:08:27.458Z,9.70
2018-11-10T23:10:56.599Z,9.70
2018-11-10T23:13:25.360Z,9.70
2018-11-10T23:15:54.029Z,9.70
2018-11-10T23:18:22.778Z,9.70
2018-11-10T23:20:51.445Z,9.70
2018-11-10T23:23:20.209Z,9.70
2018-11-10T23:25:49.859Z,9.80
2018-11-10T23:28:18.614Z,9.80
2018-11-10T23:30:47.253Z,9.80
2018-11-10T23:33:15.919Z,9.80
2018-11-10T23:35:44.499Z,9.80
2018-11-10T23:38:13.951Z,9.80
2018-11-10T23:40:42.512Z,9.80
2018-11-10T23:43:11.118Z,9.80
2018-11-10T23:45:40.473Z,9.80
2018-11-10T23:48:09.159Z,9.90
2018-11-10T23:50:37.832Z,9.90
2018-11-10T23:53:07.062Z,9.90
2018-11-10T23:55:35.697Z,9.90
2018-11-10T23:58:04.533Z,9.90
